Time;durP1;ratioP1;P1;durP2;ratioP2;P2;SDS_P1;SDS_P2;PMS_P1;PMS_P2;Temp;Humidity;BMP_temperature;BMP_pressure;BME280_temperature;BME280_humidity;BME280_pressure;Samples;Min_cycle;Max_cycle;Signal;HPM_P1;HPM_P2
2022/05/20 00:00:43;;;;;;;46.22;29.83;;;;;;;;;;4348485;33;20090;-70
2022/05/20 00:03:09;;;;;;;39.92;30.02;;;;;;;;;;4361580;32;20058;-70
2022/05/20 00:05:34;;;;;;;45.75;32.80;;;;;;;;;;4362003;32;20035;-70
2022/05/20 00:07:59;;;;;;;50.00;33.58;;;;;;;;;;4358852;32;20082;-70
2022/05/20 00:10:25;;;;;;;45.17;33.60;;;;;;;;;;4345565;33;20051;-70
2022/05/20 00:12:50;;;;;;;;;;;;;;;;;;4347166;33;20032;-70
2022/05/20 00:15:17;;;;;;;45.70;32.58;;;;;;;;;;4349036;33;20323;-70
2022/05/20 00:17:43;;;;;;;39.65;32.28;;;;;;;;;;4347798;32;20069;-71
2022/05/20 00:20:09;;;;;;;44.13;33.80;;;;;;;;;;4348408;32;20429;-70
2022/05/20 00:22:34;;;;;;;45.85;33.60;;;;;;;;;;4348170;32;20028;-70
2022/05/20 00:27:57;;;;;;;44.15;33.30;;;;;;;;;;4340204;33;20058;-70
2022/05/20 00:30:22;;;;;;;39.67;31.90;;;;;;;;;;4334303;33;20024;-70
2022/05/20 00:32:48;;;;;;;49.28;35.67;;;;;;;;;;4334702;33;20094;-70
2022/05/20 00:35:13;;;;;;;38.10;30.70;;;;;;;;;;4333271;33;20089;-70
2022/05/20 00:37:40;;;;;;;50.53;33.50;;;;;;;;;;4332453;33;20161;-70
2022/05/20 00:40:06;;;;;;;39.60;31.33;;;;;;;;;;4345407;33;20374;-70
2022/05/20 00:42:32;;;;;;;42.38;33.55;;;;;;;;;;4347544;32;20050;-71
2022/05/20 00:44:58;;;;;;;47.67;34.47;;;;;;;;;;4349109;32;20074;-70
2022/05/20 00:47:24;;;;;;;48.70;37.13;;;;;;;;;;4348900;32;20067;-69
2022/05/20 00:49:55;;;;;;;49.17;33.95;;;;;;;;;;4357647;33;20046;-70
2022/05/20 00:52:22;;;;;;;43.40;33.88;;;;;;;;;;4346476;33;20481;-70
2022/05/20 00:54:51;;;;;;;44.90;33.58;;;;;;;;;;4343518;32;20103;-70
2022/05/20 00:57:36;;;;;;;56.65;36.75;;;;;;;;;;4337289;32;20043;-70
2022/05/20 01:00:13;;;;;;;46.33;35.88;;;;;;;;;;4347227;32;20020;-70
2022/05/20 01:02:39;;;;;;;45.45;35.53;;;;;;;;;;4347569;33;20435;-70
2022/05/20 01:05:07;;;;;;;44.55;32.97;;;;;;;;;;4347191;33;20058;-70
2022/05/20 01:07:36;;;;;;;36.05;29.02;;;;;;;;;;4347923;32;20028;-69
2022/05/20 01:10:01;;;;;;;42.83;28.77;;;;;;;;;;4348384;32;20098;-70
2022/05/20 01:12:27;;;;;;;33.60;28.25;;;;;;;;;;4347217;32;20028;-70
2022/05/20 01:14:52;;;;;;;49.00;37.70;;;;;;;;;;4346860;32;20028;-70
2022/05/20 01:17:18;;;;;;;32.30;26.55;;;;;;;;;;4348687;33;20122;-70
2022/05/20 01:19:48;;;;;;;43.03;31.73;;;;;;;;;;4360098;33;20063;-70
2022/05/20 01:22:24;;;;;;;33.33;27.45;;;;;;;;;;4349271;32;20028;-70
2022/05/20 01:24:49;;;;;;;42.10;30.00;;;;;;;;;;4348001;32;20035;-70
2022/05/20 01:27:14;;;;;;;40.05;31.80;;;;;;;;;;4360942;32;20058;-70
2022/05/20 01:29:40;;;;;;;;;;;;;;;;;;4363951;32;20518;-70
2022/05/20 01:32:06;;;;;;;34.85;26.62;;;;;;;;;;4363296;32;19953;-70
2022/05/20 01:34:31;;;;;;;35.22;28.77;;;;;;;;;;4361569;32;20070;-70
2022/05/20 01:36:56;;;;;;;41.78;30.05;;;;;;;;;;4361552;32;20150;-70
2022/05/20 01:39:21;;;;;;;37.22;29.33;;;;;;;;;;4345111;33;20078;-70
2022/05/20 01:41:52;;;;;;;36.45;29.45;;;;;;;;;;4346872;32;20046;-69
2022/05/20 01:44:20;;;;;;;39.45;32.45;;;;;;;;;;4347106;33;20051;-70
2022/05/20 01:46:58;;;;;;;40.10;30.30;;;;;;;;;;4345100;33;20433;-70
2022/05/20 01:49:29;;;;;;;48.08;35.17;;;;;;;;;;4355178;32;20097;-69
2022/05/20 01:51:57;;;;;;;45.28;33.22;;;;;;;;;;4352134;32;20043;-70
2022/05/20 01:54:43;;;;;;;48.55;35.95;;;;;;;;;;4348055;32;20058;-70
2022/05/20 01:57:20;;;;;;;45.28;35.72;;;;;;;;;;4347326;33;20028;-70
2022/05/20 01:59:48;;;;;;;49.42;35.63;;;;;;;;;;4348087;32;20044;-70
2022/05/20 02:02:17;;;;;;;52.85;38.50;;;;;;;;;;4357909;32;20066;-72
2022/05/20 02:04:48;;;;;;;53.03;39.38;;;;;;;;;;4358368;32;20032;-71
2022/05/20 02:07:16;;;;;;;50.70;37.70;;;;;;;;;;4346575;33;20020;-70
2022/05/20 02:10:17;;;;;;;50.38;36.95;;;;;;;;;;4348541;32;20027;-70
2022/05/20 02:12:46;;;;;;;54.78;41.53;;;;;;;;;;4359534;32;20065;-70
2022/05/20 02:15:17;;;;;;;64.12;46.63;;;;;;;;;;4348460;32;20032;-70
2022/05/20 02:17:45;;;;;;;56.45;43.35;;;;;;;;;;4358577;32;20086;-69
2022/05/20 02:20:17;;;;;;;61.28;45.15;;;;;;;;;;4347474;32;20541;-71
2022/05/20 02:22:44;;;;;;;62.15;45.28;;;;;;;;;;4347305;32;20027;-71
2022/05/20 02:25:11;;;;;;;54.70;41.28;;;;;;;;;;4345715;33;20058;-71
2022/05/20 02:27:38;;;;;;;51.83;40.88;;;;;;;;;;4347766;32;20094;-71
2022/05/20 02:30:04;;;;;;;55.38;41.60;;;;;;;;;;4346334;32;20063;-69
2022/05/20 02:32:36;;;;;;;44.72;38.58;;;;;;;;;;4358429;32;20066;-70
2022/05/20 02:35:02;;;;;;;57.80;43.35;;;;;;;;;;4347532;32;20058;-70
2022/05/20 02:37:30;;;;;;;51.05;39.75;;;;;;;;;;4346888;33;20040;-69
2022/05/20 02:39:56;;;;;;;65.53;46.40;;;;;;;;;;4344006;33;20067;-70
2022/05/20 02:42:21;;;;;;;60.42;46.72;;;;;;;;;;4347001;32;20027;-70
2022/05/20 02:44:47;;;;;;;69.22;50.00;;;;;;;;;;4347259;33;20050;-71
2022/05/20 02:47:12;;;;;;;;;;;;;;;;;;4352359;32;20043;-70
2022/05/20 02:49:37;;;;;;;66.97;49.90;;;;;;;;;;4361131;32;19939;-70
2022/05/20 02:52:03;;;;;;;70.68;53.70;;;;;;;;;;4363525;32;20054;-69
2022/05/20 02:54:28;;;;;;;76.68;57.13;;;;;;;;;;4362941;32;20035;-69
2022/05/20 02:56:53;;;;;;;;;;;;;;;;;;4362502;32;20063;-69
2022/05/20 03:04:50;;;;;;;51.92;41.72;;;;;;;;;;4361766;32;20407;-70
2022/05/20 03:07:15;;;;;;;;;;;;;;;;;;4362225;32;20046;-70
2022/05/20 03:09:40;;;;;;;46.60;38.55;;;;;;;;;;4361036;32;19949;-71
2022/05/20 03:12:06;;;;;;;59.08;46.97;;;;;;;;;;4361042;32;20027;-70
2022/05/20 03:14:32;;;;;;;;;;;;;;;;;;4361764;32;20468;-70
2022/05/20 03:17:00;;;;;;;54.38;44.53;;;;;;;;;;4360064;32;19947;-70
2022/05/20 03:19:30;;;;;;;67.10;47.88;;;;;;;;;;4360427;32;20027;-71
2022/05/20 03:21:55;;;;;;;63.78;50.55;;;;;;;;;;4361992;32;20084;-70
2022/05/20 03:24:21;;;;;;;;;;;;;;;;;;4359763;32;20036;-69
2022/05/20 03:26:46;;;;;;;61.67;47.75;;;;;;;;;;4360084;32;19944;-69
2022/05/20 03:29:12;;;;;;;62.17;49.08;;;;;;;;;;4360978;32;20107;-71
2022/05/20 03:31:37;;;;;;;;;;;;;;;;;;4362641;32;20031;-70
2022/05/20 03:34:05;;;;;;;57.92;47.00;;;;;;;;;;4349180;32;19943;-71
2022/05/20 03:36:31;;;;;;;44.75;39.92;;;;;;;;;;4346925;33;20132;-70
2022/05/20 03:38:56;;;;;;;;;;;;;;;;;;4346869;33;20126;-70
2022/05/20 03:41:21;;;;;;;54.80;45.63;;;;;;;;;;4344818;33;19934;-70
2022/05/20 03:43:46;;;;;;;53.00;43.72;;;;;;;;;;4345701;33;20343;-70
2022/05/20 03:46:12;;;;;;;58.75;47.08;;;;;;;;;;4355613;33;20027;-69
2022/05/20 03:48:37;;;;;;;67.50;53.28;;;;;;;;;;4360317;32;20031;-70
2022/05/20 03:51:02;;;;;;;;;;;;;;;;;;4362708;32;20050;-69
2022/05/20 03:53:27;;;;;;;73.03;56.47;;;;;;;;;;4359813;32;19943;-69
2022/05/20 03:55:52;;;;;;;63.75;50.30;;;;;;;;;;4348200;33;20103;-69
2022/05/20 03:58:17;;;;;;;;;;;;;;;;;;4348154;32;20127;-69
2022/05/20 04:03:26;;;;;;;81.53;60.30;;;;;;;;;;4349433;33;20512;-69
2022/05/20 04:05:51;;;;;;;;;;;;;;;;;;4350386;32;20406;-70
2022/05/20 04:08:17;;;;;;;91.45;64.65;;;;;;;;;;4352937;32;19939;-70
2022/05/20 04:10:42;;;;;;;;;;;;;;;;;;4360721;32;20119;-70
2022/05/20 04:13:07;;;;;;;83.60;60.88;;;;;;;;;;4361186;32;20339;-69
2022/05/20 04:15:32;;;;;;;71.93;57.70;;;;;;;;;;4365366;32;20053;-69
2022/05/20 04:17:57;;;;;;;78.57;57.88;;;;;;;;;;4364653;32;20400;-70
2022/05/20 04:20:22;;;;;;;81.57;61.67;;;;;;;;;;4362623;32;20409;-69
2022/05/20 04:22:47;;;;;;;;;;;;;;;;;;4360856;32;20128;-70
2022/05/20 04:25:13;;;;;;;93.68;65.25;;;;;;;;;;4362618;32;19976;-69
2022/05/20 04:27:39;;;;;;;84.40;60.50;;;;;;;;;;4363640;32;20023;-69
2022/05/20 04:30:05;;;;;;;81.85;61.10;;;;;;;;;;4362169;32;20089;-69
2022/05/20 04:32:30;;;;;;;87.95;54.63;;;;;;;;;;4356879;32;20054;-69
2022/05/20 04:34:55;;;;;;;;;;;;;;;;;;4348705;32;20028;-70
2022/05/20 04:37:23;;;;;;;122.60;51.22;;;;;;;;;;4358575;32;19961;-70
2022/05/20 04:39:48;;;;;;;52.60;41.97;;;;;;;;;;4362228;32;20042;-68
2022/05/20 04:47:41;;;;;;;83.22;54.95;;;;;;;;;;4362369;32;20054;-69
2022/05/20 04:50:06;;;;;;;;;;;;;;;;;;4358402;32;20024;-69
2022/05/20 04:52:32;;;;;;;163.87;67.45;;;;;;;;;;4359940;32;19953;-69
2022/05/20 04:54:57;;;;;;;;;;;;;;;;;;4351273;32;20085;-70
2022/05/20 04:57:30;;;;;;;113.05;70.95;;;;;;;;;;4363717;32;19938;-69
2022/05/20 05:00:00;;;;;;;225.30;79.07;;;;;;;;;;4363577;32;20058;-69
2022/05/20 05:02:26;;;;;;;152.68;84.55;;;;;;;;;;4349457;32;20031;-70
2022/05/20 05:04:51;;;;;;;152.23;89.15;;;;;;;;;;4346403;33;20055;-69
2022/05/20 05:07:16;;;;;;;;;;;;;;;;;;4348500;32;20053;-69
2022/05/20 05:09:42;;;;;;;191.98;98.43;;;;;;;;;;4347722;32;19990;-69
2022/05/20 05:12:08;;;;;;;148.30;87.43;;;;;;;;;;4348444;32;20032;-69
2022/05/20 05:14:41;;;;;;;142.57;90.18;;;;;;;;;;4347048;33;20047;-70
2022/05/20 05:17:07;;;;;;;133.48;84.07;;;;;;;;;;4346861;32;20089;-70
2022/05/20 05:19:32;;;;;;;;;;;;;;;;;;4347233;32;20185;-69
2022/05/20 05:21:57;;;;;;;129.50;83.93;;;;;;;;;;4348364;32;19939;-69
2022/05/20 05:24:22;;;;;;;136.77;86.05;;;;;;;;;;4346054;33;20390;-70
2022/05/20 05:26:47;;;;;;;;;;;;;;;;;;4357354;32;20023;-69
2022/05/20 05:29:12;;;;;;;127.60;79.25;;;;;;;;;;4362071;32;19938;-69
2022/05/20 05:31:38;;;;;;;130.00;80.70;;;;;;;;;;4360981;32;20028;-70
2022/05/20 05:34:03;;;;;;;102.65;71.25;;;;;;;;;;4361585;32;20427;-68
2022/05/20 05:36:28;;;;;;;116.10;75.60;;;;;;;;;;4362801;32;20061;-69
2022/05/20 05:38:53;;;;;;;107.28;71.30;;;;;;;;;;4361007;32;20094;-70
2022/05/20 05:41:19;;;;;;;;;;;;;;;;;;4346051;32;20294;-70
2022/05/20 05:43:45;;;;;;;114.55;74.95;;;;;;;;;;4345408;32;19997;-70
2022/05/20 05:46:10;;;;;;;112.85;73.50;;;;;;;;;;4344784;32;20101;-69
2022/05/20 05:48:35;;;;;;;110.07;74.03;;;;;;;;;;4352781;32;20039;-69
2022/05/20 05:51:02;;;;;;;;;;;;;;;;;;4360554;32;20222;-70
2022/05/20 05:53:27;;;;;;;98.07;67.93;;;;;;;;;;4362306;32;19957;-70
2022/05/20 05:55:57;;;;;;;105.47;71.95;;;;;;;;;;4351453;32;20032;-69
2022/05/20 05:58:22;;;;;;;102.00;70.40;;;;;;;;;;4346560;33;20069;-69
2022/05/20 06:00:47;;;;;;;94.00;66.87;;;;;;;;;;4351375;32;20031;-69
2022/05/20 06:03:15;;;;;;;100.62;67.90;;;;;;;;;;4345085;33;20020;-70
2022/05/20 06:05:41;;;;;;;93.82;66.72;;;;;;;;;;4344538;33;20047;-71
2022/05/20 06:08:06;;;;;;;92.47;64.37;;;;;;;;;;4346282;32;20022;-70
2022/05/20 06:10:31;;;;;;;81.30;62.85;;;;;;;;;;4345576;32;20111;-70
2022/05/20 06:12:57;;;;;;;81.93;61.67;;;;;;;;;;4345756;33;20380;-70
2022/05/20 06:15:22;;;;;;;76.00;57.67;;;;;;;;;;4345887;32;20098;-71
2022/05/20 06:17:51;;;;;;;74.45;58.08;;;;;;;;;;4350368;32;20077;-70
2022/05/20 06:20:17;;;;;;;65.95;52.62;;;;;;;;;;4360297;32;20038;-69
2022/05/20 06:22:42;;;;;;;64.55;50.55;;;;;;;;;;4353456;32;20106;-71
2022/05/20 06:25:07;;;;;;;65.85;49.00;;;;;;;;;;4359443;32;20063;-71
2022/05/20 06:27:33;;;;;;;54.80;44.90;;;;;;;;;;4345839;33;20481;-70
2022/05/20 06:29:58;;;;;;;51.75;43.00;;;;;;;;;;4344832;32;20421;-69
2022/05/20 06:32:24;;;;;;;50.65;43.20;;;;;;;;;;4349211;32;20075;-70
2022/05/20 06:40:18;;;;;;;36.25;30.33;;;;;;;;;;4345660;33;20464;-69
2022/05/20 06:42:43;;;;;;;39.30;29.25;;;;;;;;;;4354020;32;20353;-70
2022/05/20 06:45:10;;;;;;;33.20;27.67;;;;;;;;;;4349266;33;20115;-69
2022/05/20 06:47:35;;;;;;;35.67;27.42;;;;;;;;;;4348881;32;20223;-70
2022/05/20 06:50:00;;;;;;;35.13;27.48;;;;;;;;;;4349106;32;20020;-70
2022/05/20 06:52:25;;;;;;;33.83;26.90;;;;;;;;;;4350121;32;20437;-70
2022/05/20 06:54:51;;;;;;;33.33;26.20;;;;;;;;;;4353888;32;20476;-70
2022/05/20 06:57:19;;;;;;;30.67;26.35;;;;;;;;;;4347084;32;20065;-70
2022/05/20 06:59:44;;;;;;;37.33;25.77;;;;;;;;;;4350317;32;20083;-70
2022/05/20 07:02:10;;;;;;;29.73;22.33;;;;;;;;;;4365474;32;20059;-71
2022/05/20 07:04:35;;;;;;;24.90;20.37;;;;;;;;;;4347342;33;20480;-69
2022/05/20 07:07:02;;;;;;;25.60;19.50;;;;;;;;;;4354585;33;20533;-70
2022/05/20 07:09:27;;;;;;;23.15;19.45;;;;;;;;;;4347929;32;20040;-70
2022/05/20 07:11:53;;;;;;;25.85;19.42;;;;;;;;;;4357110;32;20062;-70
2022/05/20 07:14:18;;;;;;;31.00;20.30;;;;;;;;;;4357122;32;20413;-70
2022/05/20 07:16:43;;;;;;;24.87;20.20;;;;;;;;;;4358399;32;20123;-70
2022/05/20 07:19:09;;;;;;;22.67;17.98;;;;;;;;;;4345576;33;20134;-70
2022/05/20 07:21:34;;;;;;;22.70;17.70;;;;;;;;;;4346025;32;20515;-70
2022/05/20 07:24:01;;;;;;;30.55;17.33;;;;;;;;;;4344337;33;20028;-69
2022/05/20 07:26:26;;;;;;;26.25;18.15;;;;;;;;;;4344823;32;20417;-69
2022/05/20 07:28:51;;;;;;;23.42;18.05;;;;;;;;;;4353297;32;20089;-70
2022/05/20 07:31:17;;;;;;;32.17;19.95;;;;;;;;;;4352612;32;20534;-71
2022/05/20 07:33:43;;;;;;;25.35;19.73;;;;;;;;;;4362606;32;20027;-71
2022/05/20 07:36:08;;;;;;;23.30;18.10;;;;;;;;;;4352139;32;20066;-70
2022/05/20 07:38:34;;;;;;;23.33;17.40;;;;;;;;;;4349716;32;20063;-70
2022/05/20 07:41:00;;;;;;;20.90;17.65;;;;;;;;;;4359564;32;20031;-70
2022/05/20 07:43:26;;;;;;;22.25;16.37;;;;;;;;;;4358646;32;20062;-70
2022/05/20 07:45:51;;;;;;;24.55;16.50;;;;;;;;;;4359676;32;20028;-70
2022/05/20 07:48:17;;;;;;;23.52;16.62;;;;;;;;;;4350183;32;20373;-70
2022/05/20 07:50:45;;;;;;;17.12;14.85;;;;;;;;;;4362636;32;20020;-70
2022/05/20 07:53:29;;;;;;;20.48;15.82;;;;;;;;;;4347639;32;20327;-70
2022/05/20 07:55:56;;;;;;;22.27;13.73;;;;;;;;;;4348954;32;20133;-71
2022/05/20 07:58:26;;;;;;;25.40;14.77;;;;;;;;;;4351536;32;20020;-69
2022/05/20 08:00:52;;;;;;;19.02;13.75;;;;;;;;;;4358023;32;20076;-70
2022/05/20 08:04:52;;;;;;;20.35;13.80;;;;;;;;;;4358107;32;20086;-70
2022/05/20 08:06:03;;;;;;;18.70;13.05;;;;;;;;;;4346926;33;20035;-71
2022/05/20 08:08:29;;;;;;;22.37;13.55;;;;;;;;;;4347324;32;20054;-71
2022/05/20 08:10:54;;;;;;;21.30;14.03;;;;;;;;;;4361354;32;20146;-71
2022/05/20 08:13:21;;;;;;;17.62;15.07;;;;;;;;;;4361126;32;20124;-70
2022/05/20 08:15:46;;;;;;;20.30;12.05;;;;;;;;;;4361754;32;20051;-70
2022/05/20 08:18:11;;;;;;;14.93;12.13;;;;;;;;;;4350670;32;20028;-70
2022/05/20 08:20:37;;;;;;;20.58;12.73;;;;;;;;;;4362464;32;20020;-70
2022/05/20 08:23:02;;;;;;;18.25;11.57;;;;;;;;;;4356825;32;20381;-70
2022/05/20 08:25:28;;;;;;;17.30;11.70;;;;;;;;;;4349321;32;20124;-70
2022/05/20 08:27:54;;;;;;;18.67;11.45;;;;;;;;;;4357395;32;20139;-70
2022/05/20 08:30:21;;;;;;;14.07;10.05;;;;;;;;;;4356121;32;20023;-70
2022/05/20 08:32:47;;;;;;;17.55;11.27;;;;;;;;;;4348732;32;20054;-70
2022/05/20 08:35:13;;;;;;;13.52;10.80;;;;;;;;;;4347409;32;20027;-70
2022/05/20 08:37:40;;;;;;;14.35;9.15;;;;;;;;;;4362396;32;20035;-70
2022/05/20 08:40:07;;;;;;;13.23;9.20;;;;;;;;;;4362809;32;20079;-70
2022/05/20 08:42:33;;;;;;;15.10;8.25;;;;;;;;;;4360803;32;20024;-70
2022/05/20 08:45:00;;;;;;;13.73;8.75;;;;;;;;;;4354598;32;20085;-70
2022/05/20 08:47:31;;;;;;;13.27;9.90;;;;;;;;;;4347191;33;20435;-70
2022/05/20 08:49:57;;;;;;;13.82;9.13;;;;;;;;;;4349426;32;20059;-71
2022/05/20 08:52:23;;;;;;;10.07;8.48;;;;;;;;;;4358558;32;20036;-71
2022/05/20 08:54:48;;;;;;;16.55;9.57;;;;;;;;;;4353995;32;20028;-70
2022/05/20 08:57:17;;;;;;;11.57;10.30;;;;;;;;;;4353470;33;20062;-71
2022/05/20 08:59:43;;;;;;;16.48;9.93;;;;;;;;;;4359711;32;20127;-71
2022/05/20 09:02:08;;;;;;;14.75;8.93;;;;;;;;;;4355930;32;20085;-69
2022/05/20 09:04:33;;;;;;;11.48;8.70;;;;;;;;;;4354642;33;20019;-70
2022/05/20 09:07:09;;;;;;;14.90;9.13;;;;;;;;;;4355042;33;20070;-69
2022/05/20 09:09:58;;;;;;;14.05;9.35;;;;;;;;;;4352866;32;20463;-69
2022/05/20 09:12:25;;;;;;;11.10;7.97;;;;;;;;;;4344430;32;20046;-68
2022/05/20 09:17:42;;;;;;;17.33;8.85;;;;;;;;;;4352902;32;20082;-70
2022/05/20 09:20:07;;;;;;;16.67;9.60;;;;;;;;;;4346598;32;20027;-71
2022/05/20 09:22:37;;;;;;;12.10;8.10;;;;;;;;;;4347378;32;20032;-70
2022/05/20 09:25:03;;;;;;;11.25;6.85;;;;;;;;;;4349277;33;20105;-70
2022/05/20 09:27:29;;;;;;;10.15;6.87;;;;;;;;;;4361181;32;20107;-70
2022/05/20 09:29:59;;;;;;;13.35;6.72;;;;;;;;;;4351569;32;20086;-70
2022/05/20 09:32:24;;;;;;;14.98;7.47;;;;;;;;;;4346142;32;20125;-71
2022/05/20 09:34:58;;;;;;;11.65;7.00;;;;;;;;;;4349844;32;20028;-70
2022/05/20 09:37:25;;;;;;;16.80;7.15;;;;;;;;;;4340426;33;20119;-70
2022/05/20 09:39:51;;;;;;;11.45;6.18;;;;;;;;;;4361450;32;20459;-69
2022/05/20 09:42:23;;;;;;;9.52;5.70;;;;;;;;;;4347704;32;20027;-69
2022/05/20 09:44:50;;;;;;;13.48;7.30;;;;;;;;;;4351858;32;20088;-70
2022/05/20 09:47:15;;;;;;;11.65;7.30;;;;;;;;;;4345707;32;20036;-70
2022/05/20 09:49:48;;;;;;;10.77;6.75;;;;;;;;;;4351957;32;20020;-71
2022/05/20 09:52:36;;;;;;;10.18;7.03;;;;;;;;;;4359140;32;20441;-72
2022/05/20 09:55:12;;;;;;;12.82;7.15;;;;;;;;;;4357439;32;20088;-70
2022/05/20 09:57:37;;;;;;;;;;;;;;;;;;4356712;32;20444;-70
2022/05/20 10:00:11;;;;;;;8.73;6.30;;;;;;;;;;4350239;32;20298;-70
2022/05/20 10:02:54;;;;;;;9.73;7.22;;;;;;;;;;4349262;32;20214;-70
2022/05/20 10:05:34;;;;;;;12.60;7.62;;;;;;;;;;4360975;32;20162;-69
2022/05/20 10:08:00;;;;;;;11.90;6.80;;;;;;;;;;4362588;32;20032;-70
2022/05/20 10:10:46;;;;;;;13.07;8.15;;;;;;;;;;4347823;32;20367;-70
2022/05/20 10:13:29;;;;;;;13.75;7.93;;;;;;;;;;4347452;33;20027;-70
2022/05/20 10:16:09;;;;;;;14.43;7.78;;;;;;;;;;4355345;32;20088;-70
2022/05/20 10:18:39;;;;;;;14.57;9.30;;;;;;;;;;4353284;32;20104;-70
2022/05/20 10:21:07;;;;;;;13.75;8.30;;;;;;;;;;4360727;32;20059;-70
2022/05/20 10:23:42;;;;;;;10.20;7.85;;;;;;;;;;4359182;32;20027;-70
2022/05/20 10:26:26;;;;;;;12.95;7.80;;;;;;;;;;4354737;32;20385;-72
2022/05/20 10:34:34;;;;;;;11.27;8.80;;;;;;;;;;4347994;32;20058;-70
2022/05/20 10:37:08;;;;;;;11.85;8.70;;;;;;;;;;4359173;32;20414;-70
2022/05/20 10:39:52;;;;;;;16.92;9.23;;;;;;;;;;4353780;32;20038;-70
2022/05/20 10:42:47;;;;;;;13.35;9.60;;;;;;;;;;4358858;32;20291;-69
2022/05/20 10:51:17;;;;;;;12.85;9.23;;;;;;;;;;4347522;32;20098;-69
2022/05/20 10:53:50;;;;;;;17.73;9.40;;;;;;;;;;4352346;32;20050;-70
2022/05/20 10:56:34;;;;;;;18.83;9.73;;;;;;;;;;4355388;32;20145;-70
2022/05/20 10:59:18;;;;;;;12.10;8.88;;;;;;;;;;4354534;32;20035;-70
2022/05/20 11:01:57;;;;;;;13.38;9.07;;;;;;;;;;4348302;32;20059;-69
2022/05/20 11:04:22;;;;;;;11.10;8.63;;;;;;;;;;4347280;32;20106;-69
2022/05/20 11:06:57;;;;;;;14.80;9.25;;;;;;;;;;4346143;32;20444;-70
2022/05/20 11:09:44;;;;;;;16.70;10.13;;;;;;;;;;4347194;33;20111;-69
2022/05/20 11:12:13;;;;;;;16.35;9.43;;;;;;;;;;4345758;33;20414;-69
2022/05/20 11:14:58;;;;;;;13.00;9.73;;;;;;;;;;4347112;33;20142;-70
2022/05/20 11:17:41;;;;;;;16.75;10.15;;;;;;;;;;4347657;33;20110;-70
2022/05/20 11:20:12;;;;;;;14.35;9.75;;;;;;;;;;4356346;32;20057;-69
2022/05/20 11:22:49;;;;;;;15.52;9.93;;;;;;;;;;4360345;32;20067;-69
2022/05/20 11:25:30;;;;;;;17.80;9.25;;;;;;;;;;4346641;33;20132;-69
2022/05/20 11:28:07;;;;;;;14.30;9.75;;;;;;;;;;4346090;33;20060;-70
2022/05/20 11:30:41;;;;;;;11.98;9.02;;;;;;;;;;4345280;33;20058;-70
2022/05/20 11:33:15;;;;;;;13.57;8.60;;;;;;;;;;4345888;33;20061;-69
2022/05/20 11:35:59;;;;;;;14.27;9.23;;;;;;;;;;4346263;33;20031;-70
2022/05/20 11:38:43;;;;;;;14.07;9.07;;;;;;;;;;4346190;33;20227;-69
2022/05/20 11:41:11;;;;;;;12.52;9.25;;;;;;;;;;4346171;33;20418;-69
2022/05/20 11:43:43;;;;;;;16.17;8.95;;;;;;;;;;4344756;33;20103;-71
2022/05/20 11:46:24;;;;;;;28.67;9.02;;;;;;;;;;4348947;33;20050;-70
2022/05/20 11:48:57;;;;;;;12.93;8.75;;;;;;;;;;4345085;33;20028;-70
2022/05/20 11:51:41;;;;;;;15.65;10.77;;;;;;;;;;4345239;33;20023;-70
2022/05/20 11:54:12;;;;;;;15.73;9.57;;;;;;;;;;4345792;33;20051;-69
2022/05/20 11:56:43;;;;;;;15.45;10.60;;;;;;;;;;4358566;33;20350;-70
2022/05/20 11:59:20;;;;;;;15.65;11.05;;;;;;;;;;4355615;32;20028;-70
2022/05/20 12:01:47;;;;;;;13.35;10.75;;;;;;;;;;4346887;33;20099;-69
2022/05/20 12:04:13;;;;;;;13.60;10.23;;;;;;;;;;4346983;33;20102;-69
2022/05/20 12:06:44;;;;;;;14.60;12.27;;;;;;;;;;4346540;33;20058;-69
2022/05/20 12:09:28;;;;;;;17.87;12.98;;;;;;;;;;4345324;33;20027;-69
2022/05/20 12:12:11;;;;;;;23.33;15.45;;;;;;;;;;4347159;33;20028;-71
2022/05/20 12:14:55;;;;;;;32.35;16.50;;;;;;;;;;4349488;32;20032;-69
2022/05/20 12:17:40;;;;;;;31.50;19.05;;;;;;;;;;4358859;32;20062;-72
2022/05/20 12:26:15;;;;;;;39.30;25.00;;;;;;;;;;4348947;32;20049;-71
2022/05/20 12:28:40;;;;;;;46.33;27.00;;;;;;;;;;4360220;32;20373;-71
2022/05/20 12:31:08;;;;;;;44.28;29.70;;;;;;;;;;4354471;32;20032;-71
2022/05/20 12:33:52;;;;;;;58.13;31.17;;;;;;;;;;4363734;32;20331;-70
2022/05/20 12:36:20;;;;;;;44.70;27.62;;;;;;;;;;4362048;32;20322;-71
2022/05/20 12:38:46;;;;;;;35.08;25.58;;;;;;;;;;4362258;32;20067;-71
2022/05/20 12:41:15;;;;;;;35.13;24.92;;;;;;;;;;4362431;32;20073;-71
2022/05/20 12:43:43;;;;;;;35.85;27.27;;;;;;;;;;4353059;32;20024;-71
2022/05/20 12:46:14;;;;;;;37.88;28.15;;;;;;;;;;4356276;32;20428;-71
2022/05/20 12:48:39;;;;;;;34.10;26.83;;;;;;;;;;4363910;32;20375;-71
2022/05/20 12:51:05;;;;;;;42.73;27.90;;;;;;;;;;4352724;32;20059;-71
2022/05/20 12:53:32;;;;;;;35.35;27.02;;;;;;;;;;4347187;33;20147;-70
2022/05/20 12:55:57;;;;;;;41.53;28.62;;;;;;;;;;4345500;32;20032;-72
2022/05/20 12:58:24;;;;;;;37.10;26.95;;;;;;;;;;4351597;32;20066;-71
2022/05/20 13:00:51;;;;;;;35.70;27.80;;;;;;;;;;4347440;32;20073;-70
2022/05/20 13:03:19;;;;;;;39.22;30.70;;;;;;;;;;4349398;32;20051;-72
2022/05/20 13:05:52;;;;;;;46.47;30.90;;;;;;;;;;4348862;32;20452;-73
2022/05/20 13:08:18;;;;;;;35.92;29.25;;;;;;;;;;4359370;32;20445;-69
2022/05/20 13:10:44;;;;;;;43.08;31.45;;;;;;;;;;4348751;33;20074;-71
2022/05/20 13:13:13;;;;;;;45.40;33.75;;;;;;;;;;4347954;32;20040;-72
2022/05/20 13:15:43;;;;;;;43.65;33.58;;;;;;;;;;4352561;32;20035;-70
2022/05/20 13:18:13;;;;;;;43.08;31.77;;;;;;;;;;4363784;32;20031;-71
2022/05/20 13:20:39;;;;;;;40.53;31.30;;;;;;;;;;4365207;32;20087;-71
2022/05/20 13:23:06;;;;;;;41.97;30.33;;;;;;;;;;4359279;32;20071;-71
2022/05/20 13:25:31;;;;;;;41.80;32.03;;;;;;;;;;4349260;32;20448;-71
2022/05/20 13:27:59;;;;;;;46.60;32.55;;;;;;;;;;4346285;32;20039;-70
2022/05/20 13:30:29;;;;;;;44.88;34.08;;;;;;;;;;4348283;32;20024;-71
2022/05/20 13:32:59;;;;;;;41.25;30.67;;;;;;;;;;4348754;33;20136;-72
2022/05/20 13:35:24;;;;;;;46.05;33.67;;;;;;;;;;4348774;33;20057;-70
2022/05/20 13:37:50;;;;;;;44.40;34.78;;;;;;;;;;4357259;32;20419;-71
2022/05/20 13:40:22;;;;;;;50.85;36.03;;;;;;;;;;4358438;32;20125;-72
2022/05/20 13:42:49;;;;;;;49.38;36.13;;;;;;;;;;4346246;32;20482;-71
2022/05/20 13:45:14;;;;;;;51.00;35.63;;;;;;;;;;4347585;32;20054;-73
2022/05/20 13:50:23;;;;;;;50.22;35.20;;;;;;;;;;4347874;33;20054;-72
2022/05/20 13:52:49;;;;;;;49.22;34.45;;;;;;;;;;4346680;32;20036;-71
2022/05/20 13:55:15;;;;;;;68.93;44.33;;;;;;;;;;4345888;33;20121;-72
2022/05/20 13:57:46;;;;;;;51.22;36.78;;;;;;;;;;4348057;33;20054;-72
2022/05/20 14:00:30;;;;;;;61.22;42.05;;;;;;;;;;4345621;32;20051;-72
2022/05/20 14:03:03;;;;;;;58.10;41.20;;;;;;;;;;4357218;33;20062;-72
2022/05/20 14:05:30;;;;;;;59.50;43.45;;;;;;;;;;4361659;32;20413;-72
2022/05/20 14:07:58;;;;;;;63.45;38.72;;;;;;;;;;4362150;32;20180;-72
2022/05/20 14:10:26;;;;;;;54.45;35.17;;;;;;;;;;4361033;32;20097;-72
2022/05/20 14:13:00;;;;;;;29.37;21.45;;;;;;;;;;4360975;32;20028;-71
2022/05/20 14:15:31;;;;;;;29.15;19.85;;;;;;;;;;4353609;32;20075;-72
2022/05/20 14:18:00;;;;;;;19.75;14.35;;;;;;;;;;4346138;32;20058;-72
2022/05/20 14:20:27;;;;;;;21.05;13.27;;;;;;;;;;4347858;32;20059;-72
2022/05/20 14:22:52;;;;;;;15.15;10.63;;;;;;;;;;4346394;32;20437;-72
2022/05/20 14:25:27;;;;;;;16.12;10.02;;;;;;;;;;4346425;33;20099;-72
2022/05/20 14:28:08;;;;;;;15.27;10.25;;;;;;;;;;4346554;32;20073;-71
2022/05/20 14:30:33;;;;;;;18.92;10.73;;;;;;;;;;4347381;33;20361;-72
2022/05/20 14:33:01;;;;;;;18.97;11.03;;;;;;;;;;4349704;33;20078;-72
2022/05/20 14:35:39;;;;;;;18.48;13.75;;;;;;;;;;4349879;32;20136;-72
2022/05/20 14:38:06;;;;;;;17.37;12.65;;;;;;;;;;4353954;32;20035;-72
2022/05/20 14:40:31;;;;;;;21.25;12.20;;;;;;;;;;4345134;32;20040;-71
2022/05/20 14:42:59;;;;;;;18.55;9.95;;;;;;;;;;4345698;32;20027;-72
2022/05/20 14:45:32;;;;;;;9.77;7.18;;;;;;;;;;4346350;32;20460;-72
2022/05/20 14:48:03;;;;;;;18.37;8.70;;;;;;;;;;4346075;33;20426;-72
2022/05/20 14:50:29;;;;;;;14.23;8.60;;;;;;;;;;4347278;33;20024;-72
2022/05/20 14:52:54;;;;;;;;;;;;;;;;;;4347966;32;20090;-73
2022/05/20 14:55:26;;;;;;;17.65;8.85;;;;;;;;;;4348917;32;20264;-73
2022/05/20 14:58:18;;;;;;;18.90;12.95;;;;;;;;;;4349892;32;20035;-72
2022/05/20 15:01:10;;;;;;;22.58;11.38;;;;;;;;;;4353674;32;20157;-72
2022/05/20 15:03:36;;;;;;;18.90;13.05;;;;;;;;;;4344996;32;20067;-72
2022/05/20 15:06:03;;;;;;;20.70;13.27;;;;;;;;;;4345322;33;20027;-72
2022/05/20 15:08:30;;;;;;;17.55;12.55;;;;;;;;;;4347754;32;20417;-72
2022/05/20 15:10:57;;;;;;;21.40;11.52;;;;;;;;;;4361601;32;20139;-72
2022/05/20 15:13:22;;;;;;;16.48;11.25;;;;;;;;;;4361832;32;20035;-71
2022/05/20 15:15:47;;;;;;;17.40;13.38;;;;;;;;;;4351801;32;20023;-72
2022/05/20 15:18:12;;;;;;;25.90;14.52;;;;;;;;;;4344980;33;20042;-72
2022/05/20 15:20:43;;;;;;;18.98;11.98;;;;;;;;;;4356812;32;20151;-72
2022/05/20 15:23:17;;;;;;;16.05;12.30;;;;;;;;;;4347082;33;20111;-72